createdAt,value
2023-03-12T00:01:33.619Z,6.30
2023-03-12T00:04:04.184Z,5.47
2023-03-12T00:06:30.995Z,5.40
2023-03-12T00:08:58.975Z,5.33
2023-03-12T00:11:26.148Z,3.90
2023-03-12T00:13:55.033Z,5.83
2023-03-12T00:16:22.416Z,9.20
2023-03-12T00:18:51.032Z,5.87
2023-03-12T00:21:18.606Z,4.90
2023-03-12T00:23:47.335Z,4.70
2023-03-12T00:26:17.740Z,5.03
2023-03-12T00:28:45.023Z,5.30
2023-03-12T00:31:32.947Z,6.07
2023-03-12T00:34:01.085Z,3.80
2023-03-12T00:36:30.258Z,6.63
2023-03-12T00:38:58.401Z,5.73
2023-03-12T00:41:26.855Z,3.30
2023-03-12T00:43:53.708Z,3.93
2023-03-12T00:46:21.072Z,3.97
2023-03-12T00:48:47.957Z,3.63
2023-03-12T00:51:15.162Z,3.73
2023-03-12T00:53:42.123Z,4.47
2023-03-12T00:56:09.489Z,4.67
2023-03-12T00:58:36.647Z,3.00
2023-03-12T01:01:03.764Z,4.50
2023-03-12T01:03:30.838Z,2.80
2023-03-12T01:06:00.877Z,4.30
2023-03-12T01:08:27.720Z,2.47
2023-03-12T01:10:54.635Z,3.37
2023-03-12T01:13:21.456Z,2.97
2023-03-12T01:15:48.226Z,4.30
2023-03-12T01:18:14.965Z,4.53
2023-03-12T01:20:41.810Z,3.83
2023-03-12T01:23:09.261Z,3.67
2023-03-12T01:25:36.671Z,2.70
2023-03-12T01:28:03.587Z,6.10
2023-03-12T01:30:31.102Z,4.23
2023-03-12T01:32:57.873Z,3.13
2023-03-12T01:35:25.330Z,4.03
2023-03-12T01:37:53.181Z,3.97
2023-03-12T01:40:21.279Z,3.30
2023-03-12T01:42:58.288Z,4.60
2023-03-12T01:45:59.024Z,2.40
2023-03-12T01:48:27.660Z,3.70
2023-03-12T01:51:00.690Z,2.60
2023-03-12T01:53:28.228Z,3.47
2023-03-12T01:55:55.010Z,9.03
2023-03-12T01:58:22.385Z,3.57
2023-03-12T02:00:49.164Z,3.57
2023-03-12T02:03:16.228Z,3.23
2023-03-12T02:05:52.184Z,4.33
2023-03-12T02:08:19.009Z,2.57
2023-03-12T02:10:46.234Z,3.83
2023-03-12T02:13:13.080Z,4.07
2023-03-12T02:15:40.123Z,2.30
2023-03-12T02:18:09.082Z,3.17
2023-03-12T02:21:09.453Z,2.83
2023-03-12T02:23:43.281Z,4.07
2023-03-12T02:26:10.375Z,2.67
2023-03-12T02:28:42.816Z,3.50
2023-03-12T02:31:11.864Z,2.97
2023-03-12T02:33:38.730Z,2.93
2023-03-12T02:36:05.752Z,2.83
2023-03-12T02:38:43.318Z,5.43
2023-03-12T02:41:18.845Z,2.50
2023-03-12T02:43:50.522Z,2.20
2023-03-12T02:46:17.668Z,3.73
2023-03-12T02:48:44.434Z,4.20
2023-03-12T02:51:11.085Z,3.37
2023-03-12T02:53:37.704Z,3.87
2023-03-12T02:56:04.813Z,2.90
2023-03-12T02:58:31.523Z,4.27
2023-03-12T03:00:58.255Z,2.40
2023-03-12T03:03:25.023Z,4.37
2023-03-12T03:05:52.172Z,4.27
2023-03-12T03:08:18.886Z,2.57
2023-03-12T03:10:45.622Z,4.17
2023-03-12T03:13:12.507Z,5.27
2023-03-12T03:15:39.591Z,3.43
2023-03-12T03:18:06.446Z,3.93
2023-03-12T03:20:33.154Z,2.77
2023-03-12T03:22:59.792Z,3.50
2023-03-12T03:25:26.474Z,2.43
2023-03-12T03:27:53.142Z,5.03
2023-03-12T03:30:21.377Z,5.30
2023-03-12T03:32:49.816Z,4.47
2023-03-12T03:35:17.399Z,3.73
2023-03-12T03:37:44.111Z,5.50
2023-03-12T03:40:12.491Z,3.67
2023-03-12T03:42:40.157Z,4.30
2023-03-12T03:45:07.958Z,3.63
2023-03-12T03:47:34.703Z,2.53
2023-03-12T03:50:01.442Z,5.13
2023-03-12T03:52:28.083Z,4.13
2023-03-12T03:54:54.940Z,4.17
2023-03-12T03:57:21.651Z,2.67
2023-03-12T03:59:48.283Z,3.13
2023-03-12T04:02:14.935Z,2.93
2023-03-12T04:04:41.597Z,5.00
2023-03-12T04:07:08.272Z,2.27
2023-03-12T04:09:34.930Z,3.07
2023-03-12T04:12:01.665Z,5.07
2023-03-12T04:14:28.416Z,2.20
2023-03-12T04:16:55.028Z,3.87
2023-03-12T04:19:21.670Z,2.77
2023-03-12T04:21:48.306Z,5.10
2023-03-12T04:24:16.663Z,4.40
2023-03-12T04:26:43.596Z,4.30
2023-03-12T04:29:10.266Z,3.70
2023-03-12T04:31:37.092Z,3.90
2023-03-12T04:34:03.856Z,2.27
2023-03-12T04:36:30.557Z,2.67
2023-03-12T04:38:57.458Z,3.93
2023-03-12T04:41:24.121Z,2.93
2023-03-12T04:43:50.837Z,4.60
2023-03-12T04:46:18.545Z,2.73
2023-03-12T04:48:45.213Z,4.67
2023-03-12T04:51:11.878Z,5.70
2023-03-12T04:53:40.689Z,2.53
2023-03-12T04:56:07.660Z,4.27
2023-03-12T04:58:34.432Z,2.30
2023-03-12T05:01:01.191Z,2.87
2023-03-12T05:03:28.161Z,2.20
2023-03-12T05:05:54.853Z,2.10
2023-03-12T05:08:21.529Z,2.83
2023-03-12T05:10:48.262Z,2.63
2023-03-12T05:13:16.780Z,4.13
2023-03-12T05:15:43.597Z,3.37
2023-03-12T05:18:10.322Z,1.97
2023-03-12T05:20:36.975Z,6.77
2023-03-12T05:23:03.626Z,4.73
2023-03-12T05:25:30.264Z,3.87
2023-03-12T05:27:57.035Z,3.47
2023-03-12T05:30:23.750Z,4.30
2023-03-12T05:32:50.483Z,2.27
2023-03-12T05:35:17.314Z,3.67
2023-03-12T05:37:44.070Z,2.87
2023-03-12T05:40:12.258Z,4.87
2023-03-12T05:42:38.908Z,4.70
2023-03-12T05:45:06.452Z,2.30
2023-03-12T05:47:33.119Z,4.93
2023-03-12T05:49:59.779Z,6.73
2023-03-12T05:52:26.473Z,3.07
2023-03-12T05:54:53.512Z,4.47
2023-03-12T05:57:20.180Z,3.73
2023-03-12T05:59:46.824Z,4.27
2023-03-12T06:02:13.539Z,4.23
2023-03-12T06:04:40.205Z,3.33
2023-03-12T06:07:06.892Z,5.10
2023-03-12T06:09:33.508Z,3.37
2023-03-12T06:12:00.161Z,4.57
2023-03-12T06:14:26.841Z,3.30
2023-03-12T06:16:53.586Z,4.07
2023-03-12T06:19:20.369Z,3.73
2023-03-12T06:21:47.000Z,3.47
2023-03-12T06:24:13.616Z,3.70
2023-03-12T06:26:40.702Z,4.20
2023-03-12T06:29:07.431Z,5.17
2023-03-12T06:31:35.907Z,4.70
2023-03-12T06:34:04.151Z,5.70
2023-03-12T06:36:30.929Z,6.00
2023-03-12T06:38:57.578Z,5.23
2023-03-12T06:41:24.274Z,3.73
2023-03-12T06:43:51.178Z,3.43
2023-03-12T06:46:21.969Z,3.23
2023-03-12T06:48:48.991Z,4.67
2023-03-12T06:51:16.772Z,3.63
2023-03-12T06:53:45.023Z,7.13
2023-03-12T06:56:12.914Z,4.57
2023-03-12T06:58:39.730Z,2.80
2023-03-12T07:01:06.629Z,5.80
2023-03-12T07:03:33.433Z,3.73
2023-03-12T07:06:00.527Z,3.93
2023-03-12T07:08:31.095Z,6.67
2023-03-12T07:11:01.189Z,3.07
2023-03-12T07:13:28.234Z,5.27
2023-03-12T07:15:54.879Z,5.17
2023-03-12T07:18:21.518Z,5.17
2023-03-12T07:20:48.218Z,4.03
2023-03-12T07:23:15.268Z,5.60
2023-03-12T07:25:42.936Z,4.83
2023-03-12T07:28:10.785Z,4.73
2023-03-12T07:30:38.149Z,6.50
2023-03-12T07:33:13.024Z,3.33
2023-03-12T07:35:40.318Z,3.17
2023-03-12T07:38:07.882Z,3.90
2023-03-12T07:40:35.424Z,4.43
2023-03-12T07:43:02.682Z,4.17
2023-03-12T07:45:29.353Z,6.23
2023-03-12T07:47:56.216Z,4.10
2023-03-12T07:50:23.269Z,3.50
2023-03-12T07:52:50.094Z,4.47
2023-03-12T07:55:17.102Z,3.90
2023-03-12T07:57:44.541Z,2.63
2023-03-12T08:00:15.624Z,3.70
2023-03-12T08:02:42.487Z,3.27
2023-03-12T08:05:09.781Z,3.07
2023-03-12T08:07:36.626Z,4.57
2023-03-12T08:10:06.572Z,3.90
2023-03-12T08:12:33.605Z,4.10
2023-03-12T08:15:00.344Z,3.67
2023-03-12T08:17:27.088Z,5.77
2023-03-12T08:19:54.174Z,4.73
2023-03-12T08:22:20.959Z,3.73
2023-03-12T08:24:47.738Z,4.00
2023-03-12T08:27:14.544Z,4.03
2023-03-12T08:29:41.678Z,3.23
2023-03-12T08:32:10.686Z,2.97
2023-03-12T08:34:37.907Z,4.20
2023-03-12T08:37:04.923Z,5.03
2023-03-12T08:39:32.121Z,6.23
2023-03-12T08:41:58.970Z,5.60
2023-03-12T08:44:25.726Z,4.60
2023-03-12T08:46:52.873Z,8.70
2023-03-12T08:49:20.583Z,5.07
2023-03-12T08:51:47.481Z,4.03
2023-03-12T08:54:14.121Z,4.83
2023-03-12T08:56:43.937Z,4.03
2023-03-12T08:59:11.632Z,3.43
2023-03-12T09:01:42.358Z,4.77
2023-03-12T09:04:10.384Z,4.33
2023-03-12T09:06:38.624Z,4.97
2023-03-12T09:09:06.027Z,6.10
2023-03-12T09:11:34.188Z,5.93
2023-03-12T09:14:42.436Z,4.57
2023-03-12T09:16:49.273Z,5.20
2023-03-12T09:19:16.587Z,4.43
2023-03-12T09:21:43.692Z,3.83
2023-03-12T09:24:11.764Z,8.77
2023-03-12T09:26:38.552Z,4.90
2023-03-12T09:29:05.797Z,5.37
2023-03-12T09:31:32.679Z,6.60
2023-03-12T09:33:59.544Z,6.30
2023-03-12T09:36:26.515Z,5.93
2023-03-12T09:38:53.316Z,5.23
2023-03-12T09:41:23.131Z,7.23
2023-03-12T09:43:54.783Z,5.23
2023-03-12T09:46:34.030Z,5.63
2023-03-12T09:49:12.073Z,6.93
2023-03-12T09:51:43.132Z,5.33
2023-03-12T09:54:23.216Z,6.20
2023-03-12T09:56:51.577Z,5.97
2023-03-12T09:59:18.495Z,6.10
2023-03-12T10:01:53.797Z,6.13
2023-03-12T10:04:58.896Z,6.10
2023-03-12T10:07:36.540Z,5.30
2023-03-12T10:10:26.399Z,5.93
2023-03-12T10:13:14.455Z,6.20
2023-03-12T10:15:47.223Z,5.83
2023-03-12T10:18:32.430Z,6.67
2023-03-12T10:21:18.041Z,8.47
2023-03-12T10:24:10.092Z,6.20
2023-03-12T10:26:43.431Z,6.27
2023-03-12T10:29:19.017Z,6.43
2023-03-12T10:31:53.714Z,6.03
2023-03-12T10:34:40.407Z,6.87
2023-03-12T10:37:16.722Z,8.30
2023-03-12T10:39:43.723Z,6.73
2023-03-12T10:42:27.810Z,8.13
2023-03-12T10:44:58.029Z,7.63
2023-03-12T10:47:42.451Z,8.20
2023-03-12T10:50:22.506Z,8.00
2023-03-12T10:52:53.324Z,9.60
2023-03-12T10:55:27.095Z,9.00
2023-03-12T10:57:54.028Z,9.00
2023-03-12T11:00:24.222Z,9.77
2023-03-12T11:03:03.847Z,10.13
2023-03-12T11:05:58.410Z,12.53
2023-03-12T11:08:28.862Z,11.07
2023-03-12T11:10:57.549Z,9.70
2023-03-12T11:13:33.145Z,13.70
2023-03-12T11:16:21.490Z,11.23
2023-03-12T11:19:05.235Z,10.70
2023-03-12T11:21:37.397Z,9.43
2023-03-12T11:24:11.784Z,10.73
2023-03-12T11:26:53.309Z,13.23
2023-03-12T11:29:27.435Z,10.83
2023-03-12T11:32:15.803Z,15.43
2023-03-12T11:34:43.479Z,13.07
2023-03-12T11:37:39.854Z,13.03
2023-03-12T11:40:30.004Z,12.10
2023-03-12T11:43:43.219Z,11.53
2023-03-12T11:46:31.049Z,15.43
2023-03-12T11:49:14.953Z,12.83
2023-03-12T11:51:41.599Z,14.33
2023-03-12T11:54:30.123Z,13.57
2023-03-12T11:57:07.808Z,14.57
2023-03-12T12:00:12.459Z,15.77
2023-03-12T12:02:51.498Z,16.13
2023-03-12T12:05:22.871Z,16.17
2023-03-12T12:08:01.895Z,14.83
2023-03-12T12:10:35.896Z,13.10
2023-03-12T12:13:18.160Z,11.13
2023-03-12T12:16:20.400Z,12.27
2023-03-12T12:18:59.822Z,9.83
2023-03-12T12:21:50.383Z,13.90
2023-03-12T12:24:39.069Z,14.30
2023-03-12T12:27:16.027Z,12.60
2023-03-12T12:30:00.208Z,15.67
2023-03-12T12:32:57.773Z,11.60
2023-03-12T12:35:38.580Z,13.03
2023-03-12T12:38:30.550Z,11.53
2023-03-12T12:41:37.430Z,13.47
2023-03-12T12:44:13.395Z,13.50
2023-03-12T12:46:45.494Z,12.07
2023-03-12T12:49:19.310Z,15.27
2023-03-12T12:51:53.430Z,18.50
2023-03-12T12:54:47.797Z,22.87
2023-03-12T12:57:53.583Z,19.33
2023-03-12T13:01:04.752Z,23.63
2023-03-12T13:03:31.879Z,22.20
2023-03-12T13:06:03.951Z,22.93
2023-03-12T13:08:57.732Z,28.27
2023-03-12T13:11:30.137Z,21.90
2023-03-12T13:14:06.622Z,21.33
2023-03-12T13:16:51.748Z,22.90
2023-03-12T13:19:18.482Z,24.67
2023-03-12T13:22:10.066Z,23.93
2023-03-12T13:24:52.505Z,20.73
2023-03-12T13:27:44.244Z,21.27
2023-03-12T13:30:32.945Z,22.10
2023-03-12T13:33:02.009Z,24.07
2023-03-12T13:35:37.723Z,16.23
2023-03-12T13:38:19.062Z,24.23
2023-03-12T13:41:01.145Z,19.00
2023-03-12T13:43:51.734Z,22.27
2023-03-12T13:46:18.767Z,25.40
2023-03-12T13:48:47.015Z,19.77
2023-03-12T13:51:19.372Z,22.43
2023-03-12T13:53:54.279Z,19.73
2023-03-12T13:56:30.005Z,20.77
2023-03-12T13:59:00.157Z,19.60
2023-03-12T14:01:35.559Z,17.73
2023-03-12T14:04:07.764Z,19.97
2023-03-12T14:06:59.156Z,15.43
2023-03-12T14:09:59.121Z,21.70
2023-03-12T14:12:38.262Z,24.13
2023-03-12T14:15:29.467Z,20.50
2023-03-12T14:18:02.595Z,20.27
2023-03-12T14:20:30.365Z,17.23
2023-03-12T14:23:03.513Z,20.60
2023-03-12T14:25:36.655Z,27.53
2023-03-12T14:28:11.035Z,19.40
2023-03-12T14:30:44.145Z,20.40
2023-03-12T14:33:14.184Z,20.13
2023-03-12T14:35:45.184Z,18.67
2023-03-12T14:38:25.335Z,17.30
2023-03-12T14:41:05.154Z,21.13
2023-03-12T14:43:34.627Z,22.60
2023-03-12T14:46:05.044Z,18.43
2023-03-12T14:48:34.859Z,15.40
2023-03-12T14:51:02.964Z,18.50
2023-03-12T14:53:35.226Z,22.33
2023-03-12T14:56:24.404Z,18.40
2023-03-12T14:58:55.551Z,17.40
2023-03-12T15:01:31.278Z,17.50
2023-03-12T15:04:03.585Z,15.40
2023-03-12T15:06:35.960Z,18.20
2023-03-12T15:09:09.418Z,16.73
2023-03-12T15:11:40.316Z,20.17
2023-03-12T15:14:10.408Z,20.70
2023-03-12T15:16:45.636Z,20.57
2023-03-12T15:19:13.641Z,16.53
2023-03-12T15:22:04.661Z,15.63
2023-03-12T15:24:38.546Z,16.23
2023-03-12T15:27:36.211Z,20.17
2023-03-12T15:30:23.506Z,15.33
2023-03-12T15:33:28.417Z,16.07
2023-03-12T15:36:30.182Z,17.43
2023-03-12T15:39:12.851Z,20.07
2023-03-12T15:41:45.636Z,17.97
2023-03-12T15:44:22.644Z,14.73
2023-03-12T15:46:51.945Z,17.37
2023-03-12T15:49:31.425Z,16.03
2023-03-12T15:52:18.570Z,20.23
2023-03-12T15:55:13.389Z,17.63
2023-03-12T15:57:51.667Z,19.23
2023-03-12T16:00:23.165Z,20.17
2023-03-12T16:03:01.098Z,13.47
2023-03-12T16:05:39.416Z,20.77
2023-03-12T16:08:29.428Z,18.93
2023-03-12T16:10:56.632Z,18.83
2023-03-12T16:13:28.492Z,18.60
2023-03-12T16:15:55.307Z,17.63
2023-03-12T16:18:22.942Z,17.00
2023-03-12T16:20:51.457Z,19.03
2023-03-12T16:23:19.110Z,18.17
2023-03-12T16:26:12.183Z,13.80
2023-03-12T16:28:39.055Z,15.93
2023-03-12T16:31:11.968Z,16.47
2023-03-12T16:33:38.758Z,16.53
2023-03-12T16:36:12.513Z,16.73
2023-03-12T16:38:39.287Z,18.47
2023-03-12T16:41:06.049Z,16.73
2023-03-12T16:43:35.359Z,19.13
2023-03-12T16:46:05.667Z,17.00
2023-03-12T16:48:32.450Z,11.53
2023-03-12T16:51:00.112Z,18.13
2023-03-12T16:53:27.004Z,14.30
2023-03-12T16:55:56.460Z,17.90
2023-03-12T16:58:24.629Z,18.00
2023-03-12T17:00:52.623Z,14.87
2023-03-12T17:03:26.298Z,16.07
2023-03-12T17:05:53.120Z,16.23
2023-03-12T17:08:20.029Z,20.40
2023-03-12T17:10:46.861Z,16.00
2023-03-12T17:13:22.662Z,17.03
2023-03-12T17:15:49.622Z,19.33
2023-03-12T17:18:16.900Z,16.40
2023-03-12T17:20:43.782Z,17.33
2023-03-12T17:23:11.225Z,17.83
2023-03-12T17:25:40.659Z,18.00
2023-03-12T17:28:08.181Z,12.87
2023-03-12T17:30:35.108Z,16.53
2023-03-12T17:33:20.405Z,13.87
2023-03-12T17:35:47.189Z,18.00
2023-03-12T17:38:17.805Z,20.60
2023-03-12T17:40:44.951Z,22.50
2023-03-12T17:43:32.668Z,13.17
2023-03-12T17:46:13.164Z,18.40
2023-03-12T17:48:39.958Z,18.83
2023-03-12T17:51:07.925Z,17.23
2023-03-12T17:53:34.896Z,13.47
2023-03-12T17:56:02.003Z,17.03
2023-03-12T17:58:28.750Z,16.33
2023-03-12T18:00:55.679Z,19.20
2023-03-12T18:03:27.623Z,13.73
2023-03-12T18:05:57.120Z,22.23
2023-03-12T18:08:29.165Z,19.10
2023-03-12T18:11:15.503Z,17.70
2023-03-12T18:13:52.747Z,15.30
2023-03-12T18:16:19.706Z,15.37
2023-03-12T18:18:46.513Z,19.60
2023-03-12T18:21:15.829Z,17.33
2023-03-12T18:23:43.913Z,16.33
2023-03-12T18:26:10.749Z,12.63
2023-03-12T18:28:37.587Z,20.43
2023-03-12T18:31:04.585Z,17.00
2023-03-12T18:33:31.375Z,17.77
2023-03-12T18:35:58.169Z,19.80
2023-03-12T18:38:24.933Z,15.50
2023-03-12T18:40:51.852Z,10.17
2023-03-12T18:43:21.896Z,13.83
2023-03-12T18:45:50.197Z,15.60
2023-03-12T18:48:17.075Z,13.33
2023-03-12T18:50:43.812Z,13.53
2023-03-12T18:53:10.648Z,12.40
2023-03-12T18:55:37.432Z,16.53
2023-03-12T18:58:04.345Z,16.97
2023-03-12T19:00:31.106Z,17.50
2023-03-12T19:02:57.923Z,14.47
2023-03-12T19:05:24.729Z,17.93
2023-03-12T19:07:51.491Z,15.90
2023-03-12T19:10:18.302Z,17.07
2023-03-12T19:12:52.706Z,15.00
2023-03-12T19:15:21.938Z,19.33
2023-03-12T19:17:48.719Z,16.93
2023-03-12T19:20:15.849Z,19.93
2023-03-12T19:22:42.544Z,13.73
2023-03-12T19:25:09.725Z,19.17
2023-03-12T19:27:36.412Z,15.77
2023-03-12T19:30:03.322Z,16.23
2023-03-12T19:32:40.693Z,13.33
2023-03-12T19:35:11.136Z,17.33
2023-03-12T19:37:37.934Z,14.03
2023-03-12T19:40:06.029Z,16.47
2023-03-12T19:42:33.242Z,15.80
2023-03-12T19:45:00.193Z,18.63
2023-03-12T19:47:27.139Z,21.43
2023-03-12T19:49:53.989Z,19.10
2023-03-12T19:52:20.774Z,17.27
2023-03-12T19:55:01.427Z,16.77
2023-03-12T19:57:30.803Z,13.53
2023-03-12T19:59:57.518Z,13.57
2023-03-12T20:02:24.446Z,17.93
2023-03-12T20:04:51.210Z,13.77
2023-03-12T20:07:18.580Z,14.63
2023-03-12T20:09:45.270Z,16.00
2023-03-12T20:12:11.901Z,16.03
2023-03-12T20:14:40.239Z,19.00
2023-03-12T20:17:08.157Z,18.30
2023-03-12T20:19:34.851Z,14.33
2023-03-12T20:22:01.537Z,16.93
2023-03-12T20:24:28.318Z,20.30
2023-03-12T20:26:55.054Z,19.33
2023-03-12T20:29:21.790Z,16.70
2023-03-12T20:31:48.662Z,17.00
2023-03-12T20:34:15.462Z,15.67
2023-03-12T20:36:42.307Z,18.33
2023-03-12T20:39:09.122Z,16.50
2023-03-12T20:41:35.957Z,18.67
2023-03-12T20:44:02.674Z,17.30
2023-03-12T20:46:29.526Z,14.33
2023-03-12T20:48:56.841Z,16.87
2023-03-12T20:51:24.971Z,17.20
2023-03-12T20:53:51.716Z,16.70
2023-03-12T20:56:18.468Z,18.77
2023-03-12T20:58:45.155Z,15.30
2023-03-12T21:01:11.942Z,16.83
2023-03-12T21:03:38.668Z,18.53
2023-03-12T21:06:05.618Z,14.23
2023-03-12T21:08:33.226Z,11.57
2023-03-12T21:11:00.136Z,18.57
2023-03-12T21:13:27.020Z,15.07
2023-03-12T21:15:53.750Z,17.77
2023-03-12T21:18:20.490Z,13.43
2023-03-12T21:20:47.375Z,13.03
2023-03-12T21:23:14.171Z,18.03
2023-03-12T21:25:41.705Z,18.23
2023-03-12T21:28:09.766Z,15.93
2023-03-12T21:30:36.901Z,18.70
2023-03-12T21:33:03.985Z,13.10
2023-03-12T21:35:30.795Z,13.07
2023-03-12T21:37:57.663Z,11.70
2023-03-12T21:40:24.384Z,15.93
2023-03-12T21:42:51.235Z,18.33
2023-03-12T21:45:20.849Z,18.13
2023-03-12T21:47:48.114Z,11.37
2023-03-12T21:50:14.841Z,14.57
2023-03-12T21:52:47.811Z,16.83
2023-03-12T21:55:15.836Z,23.43
2023-03-12T21:57:44.396Z,16.87
2023-03-12T22:00:13.495Z,13.20
2023-03-12T22:02:41.874Z,16.20
2023-03-12T22:05:09.034Z,15.33
2023-03-12T22:07:35.794Z,13.33
2023-03-12T22:10:03.868Z,11.90
2023-03-12T22:12:30.667Z,13.63
2023-03-12T22:14:57.409Z,14.90
2023-03-12T22:17:24.310Z,19.83
2023-03-12T22:19:50.990Z,16.40
2023-03-12T22:22:18.987Z,14.00
2023-03-12T22:24:45.698Z,17.23
2023-03-12T22:27:12.469Z,12.17
2023-03-12T22:29:39.313Z,14.10
2023-03-12T22:32:06.138Z,15.47
2023-03-12T22:34:34.159Z,17.43
2023-03-12T22:37:01.036Z,14.53
2023-03-12T22:39:27.650Z,13.37
2023-03-12T22:41:55.238Z,13.43
2023-03-12T22:44:22.004Z,14.57
2023-03-12T22:46:51.408Z,14.23
2023-03-12T22:49:18.098Z,16.37
2023-03-12T22:51:44.832Z,12.67
2023-03-12T22:54:11.804Z,12.07
2023-03-12T22:56:38.796Z,15.47
2023-03-12T22:59:05.672Z,15.47
2023-03-12T23:01:32.369Z,13.63
2023-03-12T23:03:59.910Z,12.47
2023-03-12T23:06:29.957Z,15.60
2023-03-12T23:08:56.890Z,11.23
2023-03-12T23:11:25.580Z,13.93
2023-03-12T23:13:52.731Z,9.17
2023-03-12T23:16:21.637Z,12.17
2023-03-12T23:18:49.183Z,9.43
2023-03-12T23:21:21.529Z,10.17
2023-03-12T23:23:48.914Z,14.80
2023-03-12T23:26:24.228Z,10.47
2023-03-12T23:28:53.507Z,11.80
2023-03-12T23:31:20.910Z,12.53
2023-03-12T23:33:47.745Z,11.53
2023-03-12T23:36:19.571Z,11.00
2023-03-12T23:38:47.358Z,11.60
2023-03-12T23:41:17.239Z,13.87
2023-03-12T23:43:44.529Z,12.97
2023-03-12T23:46:13.031Z,11.57
2023-03-12T23:48:40.886Z,10.30
2023-03-12T23:51:12.302Z,12.50
2023-03-12T23:53:41.049Z,9.87
2023-03-12T23:56:14.816Z,13.07
2023-03-12T23:58:41.958Z,13.50
